Time;durP1;ratioP1;P1;durP2;ratioP2;P2;SDS_P1;SDS_P2;PMS_P1;PMS_P2;Temp;Humidity;BMP_temperature;BMP_pressure;BME280_temperature;BME280_humidity;BME280_pressure;Samples;Min_cycle;Max_cycle;Signal;HPM_P1;HPM_P2
2022/09/03 00:01:27;;;;;;;0.10;0.10;;;15.50;98.40;;;;;;5133600;28;20095;-85
2022/09/03 00:04:00;;;;;;;0.25;0.25;;;15.50;98.70;;;;;;5150360;28;20058;-81
2022/09/03 00:06:42;;;;;;;0.30;0.10;;;15.50;98.60;;;;;;5150562;28;20043;-86
2022/09/03 00:09:18;;;;;;;0.30;0.30;;;15.50;98.70;;;;;;5150670;28;20039;-81
2022/09/03 00:11:49;;;;;;;0.00;0.00;;;15.40;98.70;;;;;;5133750;28;20566;-81
2022/09/03 00:14:31;;;;;;;0.20;0.20;;;15.50;98.60;;;;;;5133330;28;20036;-86
2022/09/03 00:17:21;;;;;;;0.20;0.20;;;15.40;98.60;;;;;;5134218;28;20032;-86
2022/09/03 00:19:56;;;;;;;0.20;0.20;;;15.40;98.40;;;;;;5150719;28;20035;-81
2022/09/03 00:22:28;;;;;;;0.13;0.10;;;15.40;99.30;;;;;;5133306;28;20031;-81
2022/09/03 00:24:59;;;;;;;0.10;0.10;;;15.40;99.20;;;;;;5133198;28;20455;-81
2022/09/03 00:27:27;;;;;;;0.20;0.20;;;15.30;99.10;;;;;;5150742;28;20082;-85
2022/09/03 00:30:02;;;;;;;0.13;0.13;;;15.30;99.10;;;;;;5133725;28;20130;-86
2022/09/03 00:32:49;;;;;;;0.10;0.10;;;15.30;99.30;;;;;;5150322;28;20518;-82
2022/09/03 00:35:23;;;;;;;0.10;0.10;;;15.20;99.20;;;;;;5150773;27;20107;-82
2022/09/03 00:37:52;;;;;;;0.00;0.00;;;15.20;99.10;;;;;;5154509;27;20035;-81
2022/09/03 00:40:53;;;;;;;0.20;0.20;;;15.10;99.20;;;;;;5120408;27;20031;-86
2022/09/03 00:43:34;;;;;;;0.10;0.10;;;15.10;99.00;;;;;;5137221;27;20062;-81
2022/09/03 00:46:19;;;;;;;0.20;0.20;;;15.00;99.70;;;;;;5154238;27;20043;-86
2022/09/03 00:49:13;;;;;;;0.80;0.17;;;15.00;99.80;;;;;;5137037;27;20406;-85
2022/09/03 00:51:48;;;;;;;0.00;0.00;;;15.00;99.90;;;;;;5154650;27;20050;-85
2022/09/03 00:54:39;;;;;;;0.15;0.13;;;15.00;99.80;;;;;;5136927;27;20059;-85
2022/09/03 00:57:29;;;;;;;0.20;0.20;;;15.00;99.90;;;;;;5153986;27;20081;-86
2022/09/03 01:00:12;;;;;;;0.10;0.10;;;15.00;99.90;;;;;;5140906;27;20523;-81
2022/09/03 01:03:07;;;;;;;0.30;0.17;;;15.00;99.90;;;;;;5153752;27;20035;-82
2022/09/03 01:05:45;;;;;;;0.20;0.20;;;14.90;99.80;;;;;;5136696;27;20129;-86
2022/09/03 01:08:23;;;;;;;0.20;0.20;;;15.00;99.70;;;;;;5136927;27;20031;-86
2022/09/03 01:11:02;;;;;;;0.10;0.10;;;14.90;99.70;;;;;;5136705;27;20039;-85
2022/09/03 01:13:55;;;;;;;0.20;0.20;;;14.90;99.70;;;;;;5136209;27;20039;-85
2022/09/03 01:16:57;;;;;;;0.20;0.20;;;14.90;99.90;;;;;;5153536;27;20070;-86
2022/09/03 01:19:46;;;;;;;0.10;0.10;;;14.80;99.90;;;;;;5136807;27;20104;-86
2022/09/03 01:22:56;;;;;;;0.32;0.20;;;14.80;99.90;;;;;;5153848;27;20080;-82
2022/09/03 01:25:51;;;;;;;0.20;0.20;;;14.70;99.90;;;;;;5142692;27;20491;-86
2022/09/03 01:28:33;;;;;;;0.20;0.17;;;14.70;99.90;;;;;;5131339;27;20118;-86
2022/09/03 01:31:12;;;;;;;0.20;0.20;;;14.60;99.90;;;;;;5136389;27;20080;-81
2022/09/03 01:34:01;;;;;;;0.20;0.20;;;14.60;99.90;;;;;;5132750;27;20446;-85
2022/09/03 01:36:36;;;;;;;0.20;0.20;;;14.50;99.90;;;;;;5116046;28;20539;-86
2022/09/03 01:39:14;;;;;;;0.10;0.10;;;14.50;99.90;;;;;;5126269;27;20114;-81
2022/09/03 01:42:15;;;;;;;0.10;0.10;;;14.50;99.90;;;;;;5136270;27;20039;-86
2022/09/03 01:45:00;;;;;;;0.38;0.30;;;14.40;99.90;;;;;;5152660;27;20119;-82
2022/09/03 01:47:58;;;;;;;0.15;0.10;;;14.50;99.90;;;;;;5136069;27;20399;-86
2022/09/03 01:51:01;;;;;;;0.20;0.20;;;14.50;99.90;;;;;;5136413;27;20039;-81
2022/09/03 01:54:00;;;;;;;0.17;0.17;;;14.50;99.90;;;;;;5152614;27;20560;-86
2022/09/03 01:56:38;;;;;;;0.13;0.13;;;14.50;99.90;;;;;;5135682;27;20039;-81
2022/09/03 01:59:22;;;;;;;0.10;0.10;;;14.50;99.90;;;;;;5135901;27;20123;-86
2022/09/03 02:02:05;;;;;;;0.10;0.10;;;14.50;99.90;;;;;;5153095;27;20038;-85
2022/09/03 02:04:32;;;;;;;0.20;0.20;;;14.50;99.90;;;;;;5136025;27;20047;-86
2022/09/03 02:07:00;;;;;;;0.10;0.10;;;14.50;99.90;;;;;;5131955;28;20040;-81
2022/09/03 02:09:28;;;;;;;0.30;0.20;;;14.40;99.90;;;;;;5144384;27;20043;-86
2022/09/03 02:12:10;;;;;;;0.13;0.13;;;14.40;99.90;;;;;;5118564;27;20039;-82
2022/09/03 02:14:37;;;;;;;0.43;0.30;;;14.40;99.90;;;;;;5152100;27;20039;-81
2022/09/03 02:17:04;;;;;;;0.10;0.10;;;14.40;99.90;;;;;;5118677;27;20035;-81
2022/09/03 02:19:33;;;;;;;0.30;0.30;;;14.40;99.90;;;;;;5102363;27;20064;-85
2022/09/03 02:22:00;;;;;;;0.20;0.20;;;14.40;99.90;;;;;;5135568;27;20092;-81
2022/09/03 02:24:27;;;;;;;0.28;0.20;;;14.40;99.90;;;;;;5118412;27;20035;-81
2022/09/03 02:26:54;;;;;;;0.20;0.20;;;14.40;99.90;;;;;;5134787;27;20083;-85
2022/09/03 02:29:22;;;;;;;0.22;0.20;;;14.40;99.90;;;;;;5118347;27;20082;-85
2022/09/03 02:31:49;;;;;;;0.28;0.25;;;14.40;99.90;;;;;;5135120;27;20043;-81
2022/09/03 02:34:16;;;;;;;0.10;0.10;;;14.40;99.90;;;;;;5117715;27;20456;-81
2022/09/03 02:36:45;;;;;;;0.28;0.25;;;14.40;99.90;;;;;;5100751;27;20039;-86
2022/09/03 02:39:14;;;;;;;0.20;0.20;;;14.30;99.90;;;;;;5152077;27;20099;-81
2022/09/03 02:41:41;;;;;;;0.30;0.30;;;14.30;99.90;;;;;;5151939;27;20039;-82
2022/09/03 02:44:12;;;;;;;0.35;0.32;;;14.30;99.90;;;;;;5117748;27;20604;-85
2022/09/03 02:46:43;;;;;;;0.10;0.10;;;14.20;99.90;;;;;;5134964;27;20043;-85
2022/09/03 02:49:10;;;;;;;0.20;0.20;;;14.30;99.90;;;;;;5134618;27;20039;-81
2022/09/03 02:51:41;;;;;;;0.25;0.20;;;14.20;99.90;;;;;;5134852;27;20137;-86
2022/09/03 02:54:10;;;;;;;0.10;0.10;;;14.20;99.90;;;;;;5134544;27;20095;-85
2022/09/03 02:56:37;;;;;;;0.17;0.17;;;14.20;99.90;;;;;;5151646;27;20507;-86
2022/09/03 02:59:05;;;;;;;0.20;0.20;;;14.20;99.90;;;;;;5133839;27;20035;-81
2022/09/03 03:01:32;;;;;;;0.17;0.17;;;14.20;99.90;;;;;;5134345;27;20035;-81
2022/09/03 03:03:59;;;;;;;0.28;0.22;;;14.20;99.90;;;;;;5113756;28;20055;-85
2022/09/03 03:06:26;;;;;;;0.15;0.10;;;14.20;99.90;;;;;;5114007;28;20097;-86
2022/09/03 03:08:54;;;;;;;0.40;0.32;;;14.20;99.90;;;;;;5080573;28;20047;-81
2022/09/03 03:11:21;;;;;;;0.20;0.20;;;14.20;99.90;;;;;;5097555;28;20484;-81
2022/09/03 03:13:48;;;;;;;0.20;0.20;;;14.20;99.90;;;;;;5097193;28;20079;-81
2022/09/03 03:16:15;;;;;;;0.20;0.20;;;14.20;99.90;;;;;;5116905;27;20074;-86
2022/09/03 03:18:45;;;;;;;0.17;0.17;;;14.20;99.90;;;;;;5117459;27;20389;-81
2022/09/03 03:21:14;;;;;;;0.52;0.20;;;14.20;99.90;;;;;;5134089;27;20467;-81
2022/09/03 03:23:41;;;;;;;0.25;0.20;;;14.20;99.90;;;;;;5151021;27;20035;-81
2022/09/03 03:26:10;;;;;;;0.00;0.00;;;14.20;99.90;;;;;;5100676;27;20095;-81
2022/09/03 03:28:37;;;;;;;0.73;0.50;;;14.20;99.90;;;;;;5134150;27;20111;-81
2022/09/03 03:31:15;;;;;;;0.43;0.20;;;14.20;99.90;;;;;;5116762;27;20039;-85
2022/09/03 03:33:42;;;;;;;0.20;0.20;;;14.20;99.90;;;;;;5134138;27;20039;-82
2022/09/03 03:36:11;;;;;;;0.15;0.15;;;14.10;99.90;;;;;;5133800;27;20046;-85
2022/09/03 03:38:39;;;;;;;0.15;0.15;;;14.10;99.90;;;;;;5117435;27;20092;-86
2022/09/03 03:41:12;;;;;;;0.10;0.10;;;14.10;99.90;;;;;;5117053;27;20031;-85
2022/09/03 03:43:39;;;;;;;0.10;0.10;;;14.10;99.90;;;;;;5133776;27;20035;-81
2022/09/03 03:46:06;;;;;;;0.10;0.10;;;14.10;99.90;;;;;;5133789;27;20095;-85
2022/09/03 03:48:33;;;;;;;0.10;0.10;;;14.10;99.90;;;;;;5150892;27;20035;-86
2022/09/03 03:51:06;;;;;;;0.10;0.10;;;14.00;99.90;;;;;;5117117;27;20046;-81
2022/09/03 03:53:34;;;;;;;0.32;0.20;;;14.00;99.90;;;;;;5146574;28;20055;-81
2022/09/03 03:56:03;;;;;;;0.30;0.30;;;14.00;99.90;;;;;;5113317;28;20047;-81
2022/09/03 03:58:31;;;;;;;0.20;0.20;;;14.00;99.90;;;;;;5130047;28;20112;-86
2022/09/03 04:01:13;;;;;;;0.08;0.08;;;13.90;99.90;;;;;;5130198;28;20039;-86
2022/09/03 04:03:41;;;;;;;0.30;0.20;;;13.90;99.90;;;;;;5130265;28;20051;-81
2022/09/03 04:06:09;;;;;;;0.30;0.30;;;13.90;99.90;;;;;;5130132;28;20101;-85
2022/09/03 04:08:38;;;;;;;0.22;0.20;;;13.90;99.90;;;;;;5113656;28;20052;-81
2022/09/03 04:11:08;;;;;;;0.20;0.20;;;13.90;99.90;;;;;;5150621;28;20043;-81
2022/09/03 04:13:37;;;;;;;0.28;0.28;;;13.90;99.90;;;;;;5151260;28;20124;-85
2022/09/03 04:16:13;;;;;;;0.32;0.30;;;13.80;99.90;;;;;;5134480;28;20039;-86
2022/09/03 04:18:40;;;;;;;0.35;0.28;;;13.80;99.90;;;;;;5151501;28;20514;-85
2022/09/03 04:21:10;;;;;;;0.30;0.20;;;13.80;99.90;;;;;;5134702;28;20097;-86
2022/09/03 04:23:44;;;;;;;0.20;0.20;;;13.80;99.90;;;;;;5134308;28;20101;-85
2022/09/03 04:26:13;;;;;;;0.20;0.20;;;13.80;99.90;;;;;;5133533;28;20043;-85
2022/09/03 04:28:44;;;;;;;0.30;0.22;;;13.80;99.90;;;;;;5133897;28;20046;-85
2022/09/03 04:31:13;;;;;;;0.20;0.20;;;13.80;99.90;;;;;;5133751;28;20039;-82
2022/09/03 04:33:40;;;;;;;0.17;0.17;;;13.80;99.90;;;;;;5150428;28;20469;-81
2022/09/03 04:36:13;;;;;;;0.40;0.25;;;13.80;99.90;;;;;;5133166;28;20067;-82
2022/09/03 04:38:42;;;;;;;0.20;0.20;;;13.80;99.90;;;;;;5133868;28;20039;-85
2022/09/03 04:41:11;;;;;;;0.50;0.40;;;13.70;99.90;;;;;;5133091;28;20104;-81
2022/09/03 04:43:38;;;;;;;0.10;0.10;;;13.70;99.90;;;;;;5127491;28;20550;-85
2022/09/03 04:46:06;;;;;;;0.55;0.30;;;13.80;99.90;;;;;;5106041;28;20256;-85
2022/09/03 04:48:35;;;;;;;0.10;0.10;;;13.70;99.90;;;;;;5123182;28;20054;-81
2022/09/03 04:51:04;;;;;;;0.15;0.15;;;13.70;99.90;;;;;;5133013;28;20039;-82
2022/09/03 04:53:37;;;;;;;0.20;0.20;;;13.60;99.90;;;;;;5116370;28;20043;-81
2022/09/03 04:56:12;;;;;;;0.30;0.30;;;13.60;99.90;;;;;;5149878;28;20134;-82
2022/09/03 04:58:42;;;;;;;0.17;0.17;;;13.60;99.90;;;;;;5133593;28;20038;-81
2022/09/03 05:01:20;;;;;;;0.35;0.32;;;13.50;99.90;;;;;;5133167;28;20031;-85
2022/09/03 05:03:47;;;;;;;0.20;0.20;;;13.50;99.90;;;;;;5116342;28;20732;-82
2022/09/03 05:06:15;;;;;;;0.20;0.20;;;13.50;99.90;;;;;;5116071;28;20043;-85
2022/09/03 05:08:46;;;;;;;0.85;0.47;;;13.50;99.90;;;;;;5116438;28;20039;-81
2022/09/03 05:11:13;;;;;;;0.20;0.20;;;13.50;99.90;;;;;;5132954;28;20126;-81
2022/09/03 05:13:40;;;;;;;0.22;0.22;;;13.50;99.90;;;;;;5116354;28;20508;-85
2022/09/03 05:16:09;;;;;;;0.40;0.20;;;13.50;99.90;;;;;;5150177;28;20040;-85
2022/09/03 05:18:37;;;;;;;0.22;0.13;;;13.50;99.90;;;;;;5133136;28;20035;-81
2022/09/03 05:21:07;;;;;;;0.30;0.22;;;13.50;99.90;;;;;;5115189;28;20120;-85
2022/09/03 05:23:39;;;;;;;0.20;0.20;;;13.50;99.90;;;;;;5149669;28;20047;-85
2022/09/03 05:26:08;;;;;;;0.32;0.22;;;13.50;99.90;;;;;;5149734;28;20041;-82
2022/09/03 05:28:37;;;;;;;0.47;0.38;;;13.50;99.90;;;;;;5132768;28;20123;-81
2022/09/03 05:31:07;;;;;;;0.38;0.20;;;13.50;99.90;;;;;;5127808;28;20493;-85
2022/09/03 05:33:39;;;;;;;0.30;0.20;;;13.40;99.90;;;;;;5112245;28;20104;-85
2022/09/03 05:36:08;;;;;;;0.38;0.25;;;13.50;99.90;;;;;;5112492;28;20043;-82
2022/09/03 05:38:35;;;;;;;0.22;0.22;;;13.40;99.90;;;;;;5123169;28;20044;-81
2022/09/03 05:41:04;;;;;;;0.13;0.13;;;13.50;99.90;;;;;;5115408;28;20035;-82
2022/09/03 05:43:32;;;;;;;0.40;0.20;;;13.50;99.90;;;;;;5149389;28;20046;-86
2022/09/03 05:46:08;;;;;;;0.22;0.15;;;13.50;99.90;;;;;;5098967;28;20046;-81
2022/09/03 05:48:36;;;;;;;0.20;0.20;;;13.50;99.90;;;;;;5135354;28;20035;-81
2022/09/03 05:51:14;;;;;;;0.10;0.10;;;13.50;99.90;;;;;;5119203;28;20139;-84
2022/09/03 05:53:43;;;;;;;0.20;0.20;;;13.50;99.90;;;;;;5124091;28;20048;-85
2022/09/03 05:56:21;;;;;;;0.17;0.17;;;13.50;99.90;;;;;;5115178;28;20411;-86
2022/09/03 05:58:52;;;;;;;0.32;0.28;;;13.60;99.90;;;;;;5132223;28;20479;-81
2022/09/03 06:01:25;;;;;;;0.40;0.20;;;13.60;99.90;;;;;;5149018;28;20096;-86
2022/09/03 06:04:00;;;;;;;0.13;0.13;;;13.60;99.90;;;;;;5149319;28;20716;-81
2022/09/03 06:06:30;;;;;;;0.20;0.20;;;13.70;99.90;;;;;;5114962;28;20043;-82
2022/09/03 06:08:59;;;;;;;0.45;0.30;;;13.70;99.90;;;;;;5115693;28;20100;-81
2022/09/03 06:11:28;;;;;;;0.50;0.40;;;13.70;99.90;;;;;;5131308;28;20385;-82
2022/09/03 06:13:56;;;;;;;0.45;0.38;;;13.80;99.90;;;;;;5115390;28;20100;-85
2022/09/03 06:16:23;;;;;;;0.20;0.20;;;13.90;99.90;;;;;;5131669;28;20126;-82
2022/09/03 06:18:50;;;;;;;0.10;0.10;;;13.90;99.90;;;;;;5115143;28;20122;-87
2022/09/03 06:21:16;;;;;;;0.20;0.20;;;13.90;99.90;;;;;;5114571;28;20040;-86
2022/09/03 06:23:50;;;;;;;0.13;0.13;;;13.90;99.90;;;;;;5114437;28;20039;-82
2022/09/03 06:26:18;;;;;;;0.00;0.00;;;14.00;99.90;;;;;;5148129;28;20034;-82
2022/09/03 06:28:47;;;;;;;0.17;0.17;;;14.00;99.90;;;;;;5120602;28;20052;-82
2022/09/03 06:31:18;;;;;;;0.25;0.13;;;14.10;99.90;;;;;;5114613;28;20027;-82
2022/09/03 06:33:48;;;;;;;0.08;0.08;;;14.20;99.90;;;;;;5097397;28;20044;-81
2022/09/03 06:36:17;;;;;;;0.10;0.10;;;14.20;99.90;;;;;;5114529;28;20176;-82
2022/09/03 06:38:46;;;;;;;0.35;0.20;;;14.20;99.90;;;;;;5114537;28;20122;-82
2022/09/03 06:41:23;;;;;;;0.10;0.10;;;14.30;99.90;;;;;;5130995;28;20449;-82
2022/09/03 06:44:01;;;;;;;0.13;0.13;;;14.30;99.90;;;;;;5148751;28;20042;-87
2022/09/03 06:46:30;;;;;;;0.90;0.50;;;14.30;99.90;;;;;;5120122;28;20044;-87
2022/09/03 06:48:57;;;;;;;0.30;0.30;;;14.40;99.90;;;;;;5137690;28;20450;-82
2022/09/03 06:51:26;;;;;;;0.20;0.20;;;14.50;99.90;;;;;;5097445;28;20043;-86
2022/09/03 06:53:59;;;;;;;0.43;0.40;;;14.50;99.90;;;;;;5147971;28;20817;-82
2022/09/03 06:56:26;;;;;;;0.17;0.10;;;14.60;99.90;;;;;;5124792;28;20040;-85
2022/09/03 06:58:54;;;;;;;0.10;0.10;;;14.70;99.90;;;;;;5109693;28;20084;-85
2022/09/03 07:01:24;;;;;;;0.10;0.10;;;14.70;99.90;;;;;;5110936;28;20093;-87
2022/09/03 07:03:55;;;;;;;0.22;0.20;;;14.80;99.90;;;;;;5122129;28;20039;-85
2022/09/03 07:06:24;;;;;;;0.10;0.10;;;14.80;99.90;;;;;;5124794;28;20088;-82
2022/09/03 07:08:51;;;;;;;0.20;0.20;;;15.00;99.90;;;;;;5130753;28;20040;-87
2022/09/03 07:11:21;;;;;;;0.20;0.20;;;15.00;99.90;;;;;;5130664;28;20060;-85
2022/09/03 07:13:50;;;;;;;0.10;0.10;;;15.10;99.90;;;;;;5130859;28;20393;-80
2022/09/03 07:16:22;;;;;;;0.20;0.20;;;15.20;99.90;;;;;;5130565;28;20130;-86
2022/09/03 07:18:51;;;;;;;0.10;0.10;;;15.40;99.90;;;;;;5130633;28;20035;-80
2022/09/03 07:21:25;;;;;;;0.10;0.10;;;15.50;99.90;;;;;;5113663;28;20035;-86
2022/09/03 07:23:53;;;;;;;0.55;0.30;;;15.70;99.90;;;;;;5130968;28;20035;-86
2022/09/03 07:26:29;;;;;;;0.10;0.10;;;15.80;99.90;;;;;;5129989;28;20092;-85
2022/09/03 07:28:56;;;;;;;0.50;0.30;;;15.90;99.90;;;;;;5130440;28;20412;-80
2022/09/03 07:31:26;;;;;;;0.40;0.20;;;16.00;99.90;;;;;;5130462;28;20040;-86
2022/09/03 07:33:56;;;;;;;0.10;0.10;;;16.10;99.90;;;;;;5147354;28;20575;-85
2022/09/03 07:36:25;;;;;;;0.00;0.00;;;16.20;99.90;;;;;;5113759;28;20082;-80
2022/09/03 07:38:55;;;;;;;0.25;0.20;;;16.30;99.90;;;;;;5096826;28;20574;-85
2022/09/03 07:41:23;;;;;;;0.20;0.20;;;16.50;99.90;;;;;;5113195;28;20039;-80
2022/09/03 07:43:51;;;;;;;0.20;0.20;;;16.60;99.90;;;;;;5130319;28;20039;-85
2022/09/03 07:46:23;;;;;;;0.30;0.30;;;16.70;99.90;;;;;;5129896;28;20046;-81
2022/09/03 07:48:52;;;;;;;0.22;0.20;;;16.80;99.90;;;;;;5129863;28;20046;-77
2022/09/03 07:51:25;;;;;;;0.20;0.20;;;16.90;99.90;;;;;;5124980;28;20074;-77
2022/09/03 07:53:55;;;;;;;0.17;0.13;;;17.00;99.90;;;;;;5125254;28;20134;-79
2022/09/03 07:56:24;;;;;;;0.52;0.45;;;17.20;99.90;;;;;;5129129;28;20075;-79
2022/09/03 07:58:50;;;;;;;0.10;0.10;;;17.30;99.90;;;;;;5112881;28;20134;-85
2022/09/03 08:01:19;;;;;;;0.10;0.10;;;17.40;99.90;;;;;;5113629;28;20539;-83
2022/09/03 08:03:48;;;;;;;0.30;0.30;;;17.50;99.90;;;;;;5129775;28;20116;-79
2022/09/03 08:06:17;;;;;;;0.20;0.20;;;17.60;99.90;;;;;;5147012;28;20043;-81
2022/09/03 08:08:44;;;;;;;0.25;0.15;;;17.80;99.90;;;;;;5146811;28;20050;-79
2022/09/03 08:11:12;;;;;;;0.10;0.10;;;17.90;99.90;;;;;;5129712;28;20044;-79
2022/09/03 08:13:45;;;;;;;0.30;0.20;;;18.00;99.90;;;;;;5146288;28;20094;-85
2022/09/03 08:16:13;;;;;;;0.20;0.20;;;18.10;99.90;;;;;;5146806;28;20065;-84
2022/09/03 08:18:40;;;;;;;0.28;0.28;;;18.20;99.90;;;;;;5109287;28;20047;-85
2022/09/03 08:21:14;;;;;;;0.10;0.10;;;18.30;99.90;;;;;;5109298;28;20032;-84
2022/09/03 08:23:43;;;;;;;0.20;0.20;;;18.40;99.90;;;;;;5108979;28;20042;-84
2022/09/03 08:26:11;;;;;;;0.35;0.20;;;18.40;99.60;;;;;;5109790;28;20480;-79
2022/09/03 08:28:38;;;;;;;0.10;0.10;;;18.60;99.40;;;;;;5124998;28;20039;-85
2022/09/03 08:31:10;;;;;;;0.20;0.20;;;18.60;99.60;;;;;;5113158;28;20047;-84
2022/09/03 08:33:38;;;;;;;0.13;0.10;;;18.80;99.90;;;;;;5145965;28;20043;-84
2022/09/03 08:36:16;;;;;;;0.20;0.20;;;18.90;99.60;;;;;;5113199;28;20043;-87
2022/09/03 08:38:45;;;;;;;0.17;0.17;;;19.10;99.80;;;;;;5146421;28;20034;-79
2022/09/03 08:41:24;;;;;;;0.20;0.20;;;19.20;99.50;;;;;;5146638;28;20062;-79
2022/09/03 08:44:33;;;;;;;0.30;0.25;;;19.20;99.00;;;;;;5126147;28;20117;-86
2022/09/03 08:47:00;;;;;;;0.10;0.10;;;19.40;99.00;;;;;;5129963;28;20050;-80
2022/09/03 08:49:45;;;;;;;0.10;0.10;;;19.50;99.80;;;;;;5124245;28;20488;-80
2022/09/03 08:52:52;;;;;;;0.10;0.10;;;19.60;98.30;;;;;;5129973;28;20035;-79
2022/09/03 08:55:24;;;;;;;0.13;0.13;;;19.70;98.60;;;;;;5140812;28;20047;-79
2022/09/03 08:58:10;;;;;;;0.17;0.17;;;19.80;98.30;;;;;;5131053;28;20046;-89
2022/09/03 09:00:40;;;;;;;0.20;0.20;;;20.00;97.60;;;;;;5132229;28;20093;-83
2022/09/03 09:04:00;;;;;;;0.22;0.10;;;20.00;98.40;;;;;;5149298;28;20539;-80
2022/09/03 09:06:42;;;;;;;0.08;0.08;;;20.20;98.30;;;;;;5091462;28;20075;-86
2022/09/03 09:09:36;;;;;;;0.32;0.25;;;20.30;97.70;;;;;;5074447;28;20044;-79
2022/09/03 09:12:29;;;;;;;0.55;0.28;;;20.40;98.00;;;;;;5120059;28;20072;-85
2022/09/03 09:15:29;;;;;;;0.10;0.10;;;20.60;97.90;;;;;;5130658;28;20043;-84
2022/09/03 09:18:33;;;;;;;0.17;0.17;;;20.70;96.80;;;;;;5129701;28;20506;-86
2022/09/03 09:21:16;;;;;;;0.10;0.10;;;20.80;97.70;;;;;;5140180;28;20137;-81
2022/09/03 09:23:47;;;;;;;0.30;0.22;;;21.00;97.50;;;;;;5132343;28;20086;-81
2022/09/03 09:26:20;;;;;;;0.28;0.22;;;21.10;97.30;;;;;;5128888;28;20515;-81
2022/09/03 09:28:56;;;;;;;0.20;0.20;;;21.20;97.00;;;;;;5117430;28;20047;-81
2022/09/03 09:31:23;;;;;;;0.10;0.10;;;21.30;96.50;;;;;;5140446;28;20055;-85
2022/09/03 09:33:51;;;;;;;0.13;0.13;;;21.40;96.00;;;;;;5114527;28;20413;-82
2022/09/03 09:36:21;;;;;;;0.20;0.20;;;21.40;95.50;;;;;;5099294;28;20035;-85
2022/09/03 09:38:47;;;;;;;0.13;0.13;;;21.50;95.30;;;;;;5099446;28;20040;-85
2022/09/03 09:41:15;;;;;;;0.20;0.20;;;21.60;96.30;;;;;;5098752;28;20119;-81
2022/09/03 09:43:43;;;;;;;0.10;0.10;;;21.70;95.90;;;;;;5115730;28;20488;-87
2022/09/03 09:46:14;;;;;;;0.65;0.17;;;21.80;95.50;;;;;;5112335;28;20481;-81
2022/09/03 09:48:55;;;;;;;0.10;0.08;;;21.90;95.90;;;;;;5134045;28;20516;-80
2022/09/03 09:51:31;;;;;;;0.30;0.20;;;22.00;95.60;;;;;;5127693;28;20039;-80
2022/09/03 09:54:20;;;;;;;0.38;0.20;;;22.10;95.40;;;;;;5133533;28;20079;-81
2022/09/03 09:57:03;;;;;;;0.10;0.10;;;22.20;95.00;;;;;;5122087;28;20078;-85
2022/09/03 09:59:32;;;;;;;0.25;0.20;;;22.40;95.30;;;;;;5130216;28;20051;-80
2022/09/03 10:02:22;;;;;;;0.20;0.20;;;22.50;95.60;;;;;;5078731;28;20062;-80
2022/09/03 10:04:49;;;;;;;0.38;0.22;;;22.50;94.10;;;;;;5143974;28;20045;-88
2022/09/03 10:07:30;;;;;;;0.17;0.10;;;22.60;94.50;;;;;;5120347;28;20036;-85
2022/09/03 10:10:13;;;;;;;0.45;0.15;;;22.70;94.40;;;;;;5123227;28;20126;-85
2022/09/03 10:12:48;;;;;;;0.30;0.20;;;22.70;93.00;;;;;;5132160;28;20043;-79
2022/09/03 10:15:24;;;;;;;0.63;0.22;;;22.80;94.30;;;;;;5120701;28;20065;-83
2022/09/03 10:18:25;;;;;;;0.30;0.20;;;22.90;92.70;;;;;;5118576;28;20036;-81
2022/09/03 10:21:12;;;;;;;0.10;0.10;;;22.90;93.00;;;;;;5120350;28;20488;-79
2022/09/03 10:24:03;;;;;;;0.40;0.30;;;23.10;93.40;;;;;;5115541;28;20043;-81
2022/09/03 10:26:31;;;;;;;0.20;0.20;;;23.10;93.30;;;;;;5131497;28;20496;-84
2022/09/03 10:29:04;;;;;;;0.20;0.20;;;23.20;93.10;;;;;;5129338;28;20043;-80
2022/09/03 10:31:54;;;;;;;0.20;0.20;;;23.30;91.60;;;;;;5112814;28;20404;-79
2022/09/03 10:34:36;;;;;;;0.10;0.10;;;23.40;92.50;;;;;;5128155;28;20047;-81
2022/09/03 10:37:33;;;;;;;0.20;0.20;;;23.60;92.50;;;;;;5122253;28;20084;-79
2022/09/03 10:40:29;;;;;;;1.15;0.30;;;23.60;91.20;;;;;;5140997;28;20062;-80
2022/09/03 10:42:59;;;;;;;;;;;23.70;91.50;;;;;;5137591;28;20066;-82
2022/09/03 10:45:58;;;;;;;0.13;0.10;;;23.70;90.20;;;;;;5119469;28;20391;-83
2022/09/03 10:48:39;;;;;;;0.25;0.22;;;23.80;91.20;;;;;;5129648;28;20054;-82
2022/09/03 10:51:17;;;;;;;0.10;0.10;;;23.80;90.90;;;;;;5127616;28;20126;-80
2022/09/03 10:53:51;;;;;;;0.10;0.10;;;23.90;91.40;;;;;;5144168;28;20519;-81
2022/09/03 10:56:24;;;;;;;0.10;0.10;;;23.90;91.00;;;;;;5147985;28;20040;-83
2022/09/03 10:59:16;;;;;;;0.17;0.17;;;24.00;90.20;;;;;;5127625;28;20289;-83
2022/09/03 11:02:06;;;;;;;0.00;0.00;;;24.10;90.60;;;;;;5115499;28;20442;-82
2022/09/03 11:04:43;;;;;;;0.15;0.15;;;24.20;91.50;;;;;;5101560;28;20067;-83
2022/09/03 11:07:13;;;;;;;0.15;0.15;;;24.20;88.30;;;;;;5126024;28;20039;-82
2022/09/03 11:09:47;;;;;;;0.10;0.10;;;24.20;87.30;;;;;;5107175;28;20177;-82
2022/09/03 11:12:25;;;;;;;0.20;0.10;;;24.30;90.20;;;;;;5124871;28;20032;-82
2022/09/03 11:15:10;;;;;;;0.10;0.10;;;24.40;88.30;;;;;;5137001;28;20400;-80
2022/09/03 11:17:55;;;;;;;0.20;0.20;;;24.40;86.60;;;;;;5123121;28;20070;-83
2022/09/03 11:20:24;;;;;;;0.22;0.17;;;24.40;88.10;;;;;;5124795;28;20270;-80
2022/09/03 11:22:56;;;;;;;0.30;0.28;;;24.40;89.20;;;;;;5119784;28;20381;-81
2022/09/03 11:25:35;;;;;;;0.17;0.17;;;24.40;88.80;;;;;;5147391;28;20047;-83
2022/09/03 11:28:11;;;;;;;0.15;0.15;;;24.50;89.40;;;;;;5129748;28;20091;-84
2022/09/03 11:30:52;;;;;;;0.50;0.30;;;24.60;88.10;;;;;;5122519;28;20039;-85
2022/09/03 11:33:22;;;;;;;0.10;0.10;;;24.70;88.60;;;;;;5129812;28;20496;-83
2022/09/03 11:35:56;;;;;;;0.10;0.10;;;24.80;88.20;;;;;;5129879;28;20111;-83
2022/09/03 11:38:27;;;;;;;0.20;0.20;;;24.80;86.20;;;;;;5129941;28;20032;-84
2022/09/03 11:41:00;;;;;;;0.17;0.17;;;24.80;87.00;;;;;;5100330;28;20085;-81
2022/09/03 11:43:30;;;;;;;0.10;0.10;;;24.70;85.10;;;;;;5115901;28;20114;-84
2022/09/03 11:46:11;;;;;;;0.20;0.20;;;24.80;88.20;;;;;;5129613;28;20044;-80
2022/09/03 11:48:42;;;;;;;0.10;0.10;;;24.90;85.60;;;;;;5130013;28;20488;-85
2022/09/03 11:51:28;;;;;;;0.10;0.10;;;24.90;84.10;;;;;;5111894;28;20156;-79
2022/09/03 11:53:58;;;;;;;0.10;0.10;;;24.90;85.80;;;;;;5120087;28;20051;-81
2022/09/03 11:56:25;;;;;;;0.28;0.20;;;24.90;87.70;;;;;;5129862;28;20046;-81
2022/09/03 11:59:27;;;;;;;0.20;0.20;;;24.90;85.20;;;;;;5128990;28;20404;-82
2022/09/03 12:01:57;;;;;;;0.10;0.10;;;24.90;82.00;;;;;;5135648;28;20036;-83
2022/09/03 12:04:35;;;;;;;0.20;0.20;;;25.00;84.60;;;;;;5129546;28;20044;-83
2022/09/03 12:07:34;;;;;;;0.10;0.10;;;25.00;85.30;;;;;;5129555;28;20039;-80
2022/09/03 12:10:23;;;;;;;0.22;0.20;;;25.00;85.10;;;;;;5145804;28;20048;-79
2022/09/03 12:13:09;;;;;;;0.30;0.30;;;25.00;84.30;;;;;;5130085;28;20039;-80
2022/09/03 12:16:03;;;;;;;;;;;24.90;84.20;;;;;;5110293;28;20044;-83
2022/09/03 12:18:32;;;;;;;0.10;0.10;;;24.90;82.20;;;;;;5126002;28;19923;-80
2022/09/03 12:21:00;;;;;;;0.10;0.10;;;24.90;84.50;;;;;;5118686;28;20043;-85
2022/09/03 12:23:43;;;;;;;0.22;0.22;;;25.00;85.20;;;;;;5146895;28;20475;-83
2022/09/03 12:26:19;;;;;;;0.20;0.20;;;25.00;81.20;;;;;;5136632;28;20428;-84
2022/09/03 12:28:49;;;;;;;0.20;0.20;;;25.00;82.70;;;;;;5126157;28;20124;-80
2022/09/03 12:31:30;;;;;;;0.20;0.10;;;25.00;83.80;;;;;;5128897;28;20104;-79
2022/09/03 12:34:24;;;;;;;0.20;0.20;;;25.00;83.30;;;;;;5133561;28;20043;-83
2022/09/03 12:36:53;;;;;;;0.10;0.10;;;24.90;81.40;;;;;;5129946;28;20044;-88
2022/09/03 12:39:25;;;;;;;0.20;0.20;;;24.90;81.00;;;;;;5110919;28;20035;-87
2022/09/03 12:42:02;;;;;;;0.20;0.10;;;25.00;83.70;;;;;;5126463;28;20043;-80
2022/09/03 12:44:30;;;;;;;1.27;0.43;;;25.00;83.10;;;;;;6078766;22;20019;-83
2022/09/03 12:47:10;;;;;;;0.10;0.10;;;24.90;82.50;;;;;;5257629;22;20776;-79
2022/09/03 12:49:40;;;;;;;0.20;0.20;;;24.90;83.10;;;;;;5070869;28;20073;-79
2022/09/03 12:52:15;;;;;;;0.20;0.20;;;24.80;80.70;;;;;;5064177;28;20538;-80
2022/09/03 12:54:47;;;;;;;;;;;24.90;82.20;;;;;;5066901;28;20124;-79
2022/09/03 12:57:19;;;;;;;0.20;0.20;;;24.90;80.80;;;;;;5088311;28;19921;-78
2022/09/03 12:59:48;;;;;;;0.22;0.20;;;24.80;81.90;;;;;;5066830;28;20033;-79
2022/09/03 13:02:28;;;;;;;0.30;0.30;;;24.80;81.80;;;;;;5109931;23;20048;-78
2022/09/03 13:04:55;;;;;;;0.10;0.10;;;24.90;81.00;;;;;;5072594;28;20124;-79
2022/09/03 13:07:28;;;;;;;0.20;0.20;;;24.90;81.70;;;;;;5035298;28;20041;-79
2022/09/03 13:10:03;;;;;;;0.13;0.13;;;24.90;81.40;;;;;;5051964;28;20048;-79
2022/09/03 13:12:41;;;;;;;0.20;0.20;;;24.80;81.80;;;;;;5068006;28;20049;-83
2022/09/03 13:15:18;;;;;;;0.10;0.10;;;24.80;81.00;;;;;;5060558;28;20314;-83
2022/09/03 13:18:19;;;;;;;0.20;0.20;;;24.80;81.10;;;;;;5071578;28;20492;-80
2022/09/03 13:21:00;;;;;;;0.28;0.22;;;24.70;81.30;;;;;;5061182;28;20156;-81
2022/09/03 13:23:47;;;;;;;0.40;0.30;;;24.60;79.70;;;;;;5070863;28;20033;-80
2022/09/03 13:26:20;;;;;;;0.32;0.32;;;24.60;80.30;;;;;;5071167;28;20044;-81
2022/09/03 13:29:18;;;;;;;0.30;0.30;;;24.70;80.60;;;;;;5071278;28;20040;-81